Time;durP1;ratioP1;P1;durP2;ratioP2;P2;SDS_P1;SDS_P2;PMS_P1;PMS_P2;Temp;Humidity;BMP_temperature;BMP_pressure;BME280_temperature;BME280_humidity;BME280_pressure;Samples;Min_cycle;Max_cycle;Signal;HPM_P1;HPM_P2
2023/03/05 00:01:11;;;;;;;13.85;4.72;;;;;;;3.13;64.87;97811.00;5235068;27;20061;-84
2023/03/05 00:03:38;;;;;;;11.43;4.32;;;;;;;3.15;65.16;97809.25;5234920;27;20042;-84
2023/03/05 00:06:05;;;;;;;13.57;4.35;;;;;;;3.13;65.22;97799.09;5234579;27;20057;-84
2023/03/05 00:08:33;;;;;;;11.20;4.18;;;;;;;2.83;66.61;97808.06;5235048;27;20022;-84
2023/03/05 00:11:02;;;;;;;14.10;4.85;;;;;;;3.21;65.40;97804.06;5234996;27;20111;-84
2023/03/05 00:13:30;;;;;;;12.43;4.50;;;;;;;3.10;65.38;97818.72;5234595;27;20317;-84
2023/03/05 00:15:57;;;;;;;13.18;4.45;;;;;;;3.10;65.65;97826.34;5234383;27;20128;-84
2023/03/05 00:18:24;;;;;;;13.00;4.70;;;;;;;3.16;64.90;97828.78;5235084;27;20073;-84
2023/03/05 00:20:51;;;;;;;14.73;5.03;;;;;;;3.15;64.92;97830.50;5234590;27;20096;-84
2023/03/05 00:23:18;;;;;;;9.05;3.50;;;;;;;3.41;63.81;97821.56;5235033;27;20088;-84
2023/03/05 00:25:45;;;;;;;11.90;4.45;;;;;;;3.16;64.69;97836.44;5234710;27;20062;-84
2023/03/05 00:28:12;;;;;;;11.57;4.75;;;;;;;3.13;64.70;97839.03;5234464;27;20072;-84
2023/03/05 00:30:39;;;;;;;11.12;4.50;;;;;;;3.06;65.04;97838.28;5235205;27;20103;-84
2023/03/05 00:33:07;;;;;;;10.88;4.10;;;;;;;3.23;65.20;97843.13;5235017;27;20359;-84
2023/03/05 00:35:41;;;;;;;15.10;4.57;;;;;;;3.30;64.47;97833.69;5234433;27;20058;-84
2023/03/05 00:38:10;;;;;;;10.07;3.75;;;;;;;3.42;63.31;97843.66;5235149;27;20117;-84
2023/03/05 00:40:39;;;;;;;10.95;4.30;;;;;;;3.20;63.88;97835.53;5234687;27;20057;-84
2023/03/05 00:43:06;;;;;;;10.77;3.65;;;;;;;3.44;63.76;97837.66;5234861;27;20050;-84
2023/03/05 00:45:33;;;;;;;12.15;4.10;;;;;;;3.10;64.81;97839.94;5234705;27;20551;-84
2023/03/05 00:48:00;;;;;;;12.50;3.83;;;;;;;3.27;63.93;97842.19;5234426;27;20661;-84
2023/03/05 00:50:27;;;;;;;12.93;4.32;;;;;;;3.14;64.20;97836.47;5234816;27;20050;-85
2023/03/05 00:52:54;;;;;;;11.50;3.72;;;;;;;3.49;63.28;97840.94;5235061;27;20441;-85
2023/03/05 00:55:21;;;;;;;12.85;5.00;;;;;;;3.63;62.20;97843.28;5216032;27;20426;-84
2023/03/05 00:57:48;;;;;;;8.23;3.50;;;;;;;3.56;62.64;97839.13;5236036;27;20062;-84
2023/03/05 01:00:16;;;;;;;14.98;4.37;;;;;;;3.66;62.23;97837.25;5235458;27;20111;-85
2023/03/05 01:02:43;;;;;;;10.75;4.10;;;;;;;3.32;63.12;97834.47;5234350;27;20095;-84
2023/03/05 01:05:13;;;;;;;11.48;4.00;;;;;;;3.36;63.28;97844.59;5234574;27;20429;-84
2023/03/05 01:07:40;;;;;;;13.05;5.28;;;;;;;3.59;62.84;97844.19;5234866;27;20530;-85
2023/03/05 01:10:09;;;;;;;10.60;4.32;;;;;;;3.20;64.15;97845.72;5234587;27;20110;-84
2023/03/05 01:12:37;;;;;;;14.07;4.18;;;;;;;3.63;62.76;97839.88;5234723;27;20057;-84
2023/03/05 01:15:04;;;;;;;12.70;4.30;;;;;;;3.24;64.25;97832.06;5234550;27;20097;-84
2023/03/05 01:17:31;;;;;;;11.32;4.07;;;;;;;3.28;64.35;97827.72;5232843;27;20119;-84
2023/03/05 01:19:58;;;;;;;11.88;4.30;;;;;;;3.36;63.90;97834.38;5233274;27;20045;-84
2023/03/05 01:22:25;;;;;;;11.70;3.75;;;;;;;3.55;63.22;97824.72;5233130;27;20102;-85
2023/03/05 01:24:52;;;;;;;10.70;4.03;;;;;;;3.31;64.37;97831.09;5233029;27;20120;-84
2023/03/05 01:27:19;;;;;;;11.82;4.50;;;;;;;3.16;65.66;97838.97;5233152;27;20114;-85
2023/03/05 01:29:46;;;;;;;11.68;4.32;;;;;;;2.89;66.49;97838.56;5232762;27;20095;-84
2023/03/05 01:32:13;;;;;;;14.77;4.65;;;;;;;3.41;64.17;97837.72;5233315;27;20076;-84
2023/03/05 01:34:40;;;;;;;14.77;4.80;;;;;;;3.65;63.19;97838.97;5233119;27;20097;-84
2023/03/05 01:37:08;;;;;;;12.82;4.53;;;;;;;3.70;63.41;97839.72;5232918;27;20058;-84
2023/03/05 01:39:35;;;;;;;13.48;4.68;;;;;;;3.80;63.03;97839.53;5233144;27;20097;-84
2023/03/05 01:42:03;;;;;;;12.80;4.97;;;;;;;4.15;61.50;97849.06;5233211;27;20100;-84
2023/03/05 01:44:31;;;;;;;12.57;4.90;;;;;;;3.44;63.50;97837.66;5233006;27;20072;-84
2023/03/05 01:46:58;;;;;;;14.73;5.18;;;;;;;3.72;63.05;97843.09;5214982;27;20066;-85
2023/03/05 01:49:26;;;;;;;13.43;4.80;;;;;;;4.09;61.09;97844.94;5234439;27;20187;-84
2023/03/05 01:52:16;;;;;;;12.95;4.60;;;;;;;4.17;60.91;97845.63;5234443;27;20046;-85
2023/03/05 01:54:47;;;;;;;13.65;4.65;;;;;;;4.17;60.73;97847.34;5216513;27;20111;-84
2023/03/05 01:57:37;;;;;;;14.55;5.20;;;;;;;3.79;62.08;97843.81;5234827;27;20067;-84
2023/03/05 02:00:16;;;;;;;14.85;5.30;;;;;;;4.43;59.87;97836.56;5218135;27;20383;-84
2023/03/05 02:02:44;;;;;;;13.95;4.72;;;;;;;4.35;60.21;97837.56;5234804;27;20087;-84
2023/03/05 02:05:17;;;;;;;16.50;4.90;;;;;;;4.25;59.80;97838.66;5233934;27;20457;-85
2023/03/05 02:07:45;;;;;;;13.07;5.32;;;;;;;4.16;60.23;97836.28;5215862;27;20177;-85
2023/03/05 02:10:22;;;;;;;15.13;5.43;;;;;;;4.08;60.95;97833.03;5216177;27;20110;-84
2023/03/05 02:12:49;;;;;;;15.88;4.87;;;;;;;4.05;60.89;97828.84;5234420;27;20103;-84
2023/03/05 02:15:16;;;;;;;12.93;5.10;;;;;;;3.90;61.32;97828.28;5210064;27;145289;-84
2023/03/05 02:17:44;;;;;;;13.48;5.07;;;;;;;4.23;60.32;97826.75;5235923;27;20062;-84
2023/03/05 02:20:16;;;;;;;16.70;4.85;;;;;;;3.46;63.13;97824.88;5235136;27;20050;-85
2023/03/05 02:22:43;;;;;;;15.70;4.90;;;;;;;3.95;61.52;97824.78;5235704;27;20100;-84
2023/03/05 02:25:20;;;;;;;15.07;5.35;;;;;;;3.47;63.52;97816.34;5235476;27;20481;-85
2023/03/05 02:28:25;;;;;;;14.00;4.75;;;;;;;3.47;63.83;97816.34;5216184;27;20066;-84
2023/03/05 02:30:52;;;;;;;14.35;5.05;;;;;;;3.18;64.66;97807.50;5235518;27;20054;-85
2023/03/05 02:33:19;;;;;;;14.13;4.93;;;;;;;3.24;64.71;97809.09;5235017;27;20054;-84
2023/03/05 02:35:46;;;;;;;14.15;5.12;;;;;;;3.24;65.33;97810.81;5235399;27;20058;-85
2023/03/05 02:38:17;;;;;;;13.68;5.43;;;;;;;3.02;66.76;97812.87;5235360;27;20066;-84
2023/03/05 02:40:44;;;;;;;15.55;5.65;;;;;;;3.79;63.03;97813.19;5235178;27;20330;-85
2023/03/05 02:43:11;;;;;;;14.85;5.35;;;;;;;3.80;62.83;97817.41;5235463;27;20403;-85
2023/03/05 02:45:38;;;;;;;15.00;5.12;;;;;;;3.60;63.54;97819.50;5235163;27;20135;-84
2023/03/05 02:48:05;;;;;;;15.57;5.78;;;;;;;3.89;62.43;97811.31;5234672;27;20058;-84
2023/03/05 02:50:33;;;;;;;12.23;4.47;;;;;;;3.74;62.73;97812.44;5235596;27;20409;-84
2023/03/05 02:52:59;;;;;;;14.18;5.32;;;;;;;4.00;62.33;97820.41;5235612;27;20116;-85
2023/03/05 02:55:26;;;;;;;16.70;5.70;;;;;;;4.00;61.87;97822.13;5234974;27;20104;-84
2023/03/05 02:57:53;;;;;;;13.23;4.65;;;;;;;4.11;61.45;97822.75;5235133;27;20073;-84
2023/03/05 03:00:20;;;;;;;;;;;;;;;3.89;62.46;97812.13;5236035;27;20061;-85
2023/03/05 03:02:47;;;;;;;15.80;5.37;;;;;;;4.22;61.13;97817.44;5235168;27;20002;-85
2023/03/05 03:05:14;;;;;;;17.42;5.57;;;;;;;3.57;64.16;97810.22;5235440;27;20609;-84
2023/03/05 03:07:41;;;;;;;13.05;5.12;;;;;;;4.29;61.36;97813.87;5235290;27;20115;-84
2023/03/05 03:10:09;;;;;;;13.62;5.22;;;;;;;4.15;61.95;97805.66;5235148;27;20397;-84
2023/03/05 03:12:41;;;;;;;14.93;5.97;;;;;;;3.87;63.08;97803.69;5235696;27;20111;-84
2023/03/05 03:15:09;;;;;;;16.50;5.68;;;;;;;3.81;63.00;97802.94;5235278;27;20066;-84
2023/03/05 03:17:36;;;;;;;15.68;5.65;;;;;;;4.06;62.41;97799.88;5236923;27;20123;-85
2023/03/05 03:20:05;;;;;;;15.48;5.47;;;;;;;3.95;63.25;97795.88;5236856;27;20095;-84
2023/03/05 03:22:32;;;;;;;14.27;5.20;;;;;;;3.57;64.48;97799.16;5234754;27;20050;-84
2023/03/05 03:24:59;;;;;;;16.85;6.20;;;;;;;4.13;62.46;97802.28;5235384;27;20057;-84
2023/03/05 03:27:26;;;;;;;13.70;5.45;;;;;;;3.76;63.13;97796.22;5235036;27;20115;-84
2023/03/05 03:29:53;;;;;;;15.27;5.93;;;;;;;3.52;64.73;97793.31;5234814;27;20118;-84
2023/03/05 03:32:20;;;;;;;20.85;6.20;;;;;;;4.20;62.95;97799.59;5235422;27;20096;-85
2023/03/05 03:34:47;;;;;;;15.90;6.22;;;;;;;4.18;62.78;97797.94;5235262;27;20066;-85
2023/03/05 03:37:14;;;;;;;15.70;5.35;;;;;;;3.74;64.68;97794.59;5234835;27;20057;-84
2023/03/05 03:39:41;;;;;;;16.77;6.05;;;;;;;3.96;63.83;97793.28;5235381;27;20458;-84
2023/03/05 03:42:08;;;;;;;;;;;;;;;4.23;62.61;97791.00;5235725;27;20049;-85
2023/03/05 03:44:35;;;;;;;16.10;5.97;;;;;;;4.22;62.88;97795.28;5235198;27;19966;-84
2023/03/05 03:47:01;;;;;;;15.60;6.20;;;;;;;4.64;60.54;97805.44;5235111;27;20119;-84
2023/03/05 03:49:28;;;;;;;15.02;6.00;;;;;;;4.72;60.57;97802.69;5235294;27;20061;-84
2023/03/05 03:51:57;;;;;;;;;;;;;;;4.63;60.84;97801.19;5234984;27;20054;-84
2023/03/05 03:54:24;;;;;;;17.15;6.12;;;;;;;4.80;60.27;97804.22;5235200;27;20222;-84
2023/03/05 03:56:51;;;;;;;17.10;5.95;;;;;;;5.06;59.10;97795.06;5235342;27;20054;-84
2023/03/05 03:59:18;;;;;;;17.12;6.15;;;;;;;4.47;60.78;97805.00;5234875;27;20070;-84
2023/03/05 04:01:46;;;;;;;15.75;5.80;;;;;;;4.60;60.70;97797.00;5235550;27;20421;-85
2023/03/05 04:04:13;;;;;;;16.87;6.60;;;;;;;4.61;60.95;97792.72;5234845;27;20436;-84
2023/03/05 04:06:41;;;;;;;16.77;5.87;;;;;;;4.55;61.18;97798.81;5235275;27;20103;-84
2023/03/05 04:09:08;;;;;;;16.75;5.55;;;;;;;4.49;61.52;97793.84;5235089;27;20057;-84
2023/03/05 04:11:36;;;;;;;13.20;5.30;;;;;;;3.90;63.14;97787.47;5235041;27;20042;-84
2023/03/05 04:14:03;;;;;;;17.15;5.68;;;;;;;4.01;63.94;97788.06;5235118;27;20463;-84
2023/03/05 04:16:30;;;;;;;14.85;5.37;;;;;;;3.59;64.83;97784.66;5234956;27;20062;-84
2023/03/05 04:18:57;;;;;;;19.10;6.45;;;;;;;3.81;64.78;97793.56;5234663;27;20061;-84
2023/03/05 04:21:24;;;;;;;14.77;5.22;;;;;;;4.01;63.76;97790.63;5235319;27;20042;-84
2023/03/05 04:23:51;;;;;;;14.63;5.87;;;;;;;4.19;62.35;97784.31;5216284;27;20063;-84
2023/03/05 04:26:17;;;;;;;;;;;;;;;4.27;63.07;97792.66;5235057;27;20058;-84
2023/03/05 04:28:45;;;;;;;16.65;6.82;;;;;;;4.03;64.19;97791.44;5234870;27;20022;-84
2023/03/05 04:31:12;;;;;;;13.98;5.40;;;;;;;4.24;63.51;97783.31;5235115;27;20050;-84
2023/03/05 04:33:39;;;;;;;18.85;5.72;;;;;;;4.27;63.30;97785.81;5234593;27;20078;-84
2023/03/05 04:36:07;;;;;;;16.02;5.97;;;;;;;4.01;64.05;97780.41;5235038;27;20111;-84
2023/03/05 04:38:34;;;;;;;14.02;5.70;;;;;;;3.96;64.66;97787.34;5235047;27;20054;-84
2023/03/05 04:41:00;;;;;;;16.05;6.25;;;;;;;4.03;64.64;97787.16;5235078;27;20049;-84
2023/03/05 04:43:27;;;;;;;17.25;5.28;;;;;;;3.99;64.05;97792.38;5216565;27;20065;-84
2023/03/05 04:45:54;;;;;;;;;;;;;;;4.27;62.93;97779.88;5235481;27;20058;-84
2023/03/05 04:48:21;;;;;;;17.05;6.25;;;;;;;4.31;62.78;97795.09;5234961;27;19965;-84
2023/03/05 04:50:48;;;;;;;17.87;6.25;;;;;;;4.10;63.71;97793.00;5235261;27;20092;-84
2023/03/05 04:53:15;;;;;;;16.70;6.40;;;;;;;4.26;63.02;97799.47;5234692;27;20115;-84
2023/03/05 04:55:42;;;;;;;16.40;6.40;;;;;;;4.22;63.03;97791.88;5216314;27;20027;-84
2023/03/05 04:58:09;;;;;;;17.12;6.15;;;;;;;4.59;61.87;97795.31;5234941;27;20069;-84
2023/03/05 05:00:36;;;;;;;15.93;5.70;;;;;;;4.50;62.28;97787.88;5234938;27;20107;-84
2023/03/05 05:03:03;;;;;;;18.65;6.72;;;;;;;4.25;63.22;97794.38;5235127;27;20073;-84
2023/03/05 05:05:30;;;;;;;15.30;5.68;;;;;;;4.63;61.68;97793.53;5235239;27;20057;-84
2023/03/05 05:07:57;;;;;;;;;;;;;;;4.59;61.89;97794.50;5234988;27;20104;-84
2023/03/05 05:10:25;;;;;;;14.90;5.85;;;;;;;4.76;61.36;97791.53;5235398;27;20014;-84
2023/03/05 05:12:52;;;;;;;15.10;5.55;;;;;;;4.94;60.70;97791.94;5235137;27;20057;-84
2023/03/05 05:15:20;;;;;;;17.70;6.10;;;;;;;4.80;60.96;97788.03;5234882;27;20317;-84
2023/03/05 05:17:47;;;;;;;16.08;5.70;;;;;;;4.74;61.02;97793.28;5234887;27;20404;-84
2023/03/05 05:20:15;;;;;;;12.57;5.18;;;;;;;4.90;60.67;97797.16;5235219;27;20057;-84
2023/03/05 05:22:42;;;;;;;17.08;5.93;;;;;;;4.84;60.86;97793.03;5235484;27;20060;-84
2023/03/05 05:25:10;;;;;;;15.23;6.18;;;;;;;4.75;61.27;97789.84;5236199;27;20074;-84
2023/03/05 05:27:38;;;;;;;17.00;6.47;;;;;;;4.94;60.43;97794.47;5236290;27;20046;-84
2023/03/05 05:30:06;;;;;;;15.02;5.78;;;;;;;4.82;60.84;97797.34;5235882;27;20042;-84
2023/03/05 05:32:33;;;;;;;15.40;5.70;;;;;;;4.54;61.95;97796.28;5236290;27;20119;-84
2023/03/05 05:35:01;;;;;;;14.80;5.25;;;;;;;4.75;60.91;97806.00;5235984;27;20058;-84
2023/03/05 05:37:28;;;;;;;13.45;5.03;;;;;;;4.89;61.03;97798.00;5237026;27;20050;-84
2023/03/05 05:39:55;;;;;;;18.83;5.95;;;;;;;4.79;61.32;97802.53;5237529;27;20428;-84
2023/03/05 05:42:23;;;;;;;12.52;5.30;;;;;;;4.71;62.01;97809.53;5235653;27;20115;-84
2023/03/05 05:44:50;;;;;;;15.18;5.12;;;;;;;4.75;61.70;97810.28;5236284;27;20059;-84
2023/03/05 05:47:18;;;;;;;14.23;5.62;;;;;;;4.08;64.63;97810.06;5235935;27;20389;-84
2023/03/05 05:49:45;;;;;;;16.12;5.22;;;;;;;4.89;61.61;97803.12;5216687;27;20104;-84
2023/03/05 05:52:13;;;;;;;12.82;4.97;;;;;;;5.05;60.65;97803.59;5236090;27;20119;-84
2023/03/05 05:54:40;;;;;;;14.27;5.47;;;;;;;4.86;60.93;97803.22;5236282;27;20058;-84
2023/03/05 05:57:07;;;;;;;15.73;5.10;;;;;;;4.66;62.17;97801.13;5235960;27;20116;-84
2023/03/05 05:59:34;;;;;;;13.88;5.00;;;;;;;5.09;60.27;97790.69;5235913;27;20054;-84
2023/03/05 06:02:01;;;;;;;12.57;4.85;;;;;;;4.88;60.92;97802.28;5235938;27;20081;-84
2023/03/05 06:04:28;;;;;;;13.43;4.60;;;;;;;5.24;59.78;97802.28;5235666;27;20058;-84
2023/03/05 06:06:54;;;;;;;14.15;5.53;;;;;;;5.35;59.23;97804.56;5235741;27;20543;-84
2023/03/05 06:09:21;;;;;;;;;;;;;;;5.18;59.05;97804.97;5235748;27;20061;-84
2023/03/05 06:11:49;;;;;;;14.18;5.25;;;;;;;5.37;59.33;97807.91;5235209;27;19965;-84
2023/03/05 06:14:16;;;;;;;12.20;4.50;;;;;;;5.47;58.67;97809.34;5235244;27;20093;-84
2023/03/05 06:16:43;;;;;;;14.57;4.93;;;;;;;5.29;59.50;97813.22;5235207;27;20103;-84
2023/03/05 06:19:12;;;;;;;13.02;4.70;;;;;;;5.25;59.22;97811.63;5234795;27;20129;-84
2023/03/05 06:21:39;;;;;;;13.55;4.68;;;;;;;5.01;59.98;97810.53;5235358;27;20066;-84
2023/03/05 06:24:06;;;;;;;10.13;4.43;;;;;;;4.99;59.96;97819.09;5235349;27;20062;-84
2023/03/05 06:26:33;;;;;;;13.93;4.82;;;;;;;4.81;61.21;97825.50;5234665;27;20046;-84
2023/03/05 06:29:00;;;;;;;14.57;5.10;;;;;;;4.91;60.58;97817.56;5235054;27;20317;-84
2023/03/05 06:31:28;;;;;;;12.37;4.95;;;;;;;5.04;60.65;97815.56;5234998;27;20111;-83
2023/03/05 06:34:02;;;;;;;12.82;4.78;;;;;;;5.01;60.89;97814.81;5234959;27;20058;-84
2023/03/05 06:36:30;;;;;;;13.57;4.70;;;;;;;5.01;60.22;97818.19;5235065;27;20099;-84
2023/03/05 06:38:57;;;;;;;14.55;4.97;;;;;;;4.70;61.49;97820.63;5234586;27;20060;-84
2023/03/05 06:41:27;;;;;;;13.20;4.68;;;;;;;5.26;59.34;97820.16;5235312;27;20061;-84
2023/03/05 06:43:57;;;;;;;12.90;4.70;;;;;;;5.29;59.45;97815.78;5235177;27;20412;-84
2023/03/05 06:46:26;;;;;;;16.30;5.32;;;;;;;4.80;61.75;97826.38;5234728;27;20050;-84
2023/03/05 06:48:55;;;;;;;12.23;4.72;;;;;;;5.13;60.58;97825.56;5234941;27;20055;-84
2023/03/05 06:51:25;;;;;;;13.52;4.62;;;;;;;5.58;58.79;97821.87;5235116;27;20062;-84
2023/03/05 06:53:52;;;;;;;17.90;5.43;;;;;;;5.56;58.68;97824.47;5215565;27;20117;-84
2023/03/05 06:56:20;;;;;;;12.10;4.97;;;;;;;5.40;58.90;97826.56;5235054;27;20051;-84
2023/03/05 06:58:49;;;;;;;13.02;4.78;;;;;;;5.47;58.56;97820.44;5234883;27;20087;-84
2023/03/05 07:01:17;;;;;;;13.80;4.70;;;;;;;4.96;59.61;97816.62;5234641;27;20107;-84
2023/03/05 07:03:48;;;;;;;13.23;4.85;;;;;;;4.96;60.98;97824.28;5216225;27;20405;-84
2023/03/05 07:06:15;;;;;;;13.88;4.60;;;;;;;5.12;59.77;97810.25;5235079;27;20461;-84
2023/03/05 07:08:45;;;;;;;14.60;4.97;;;;;;;5.26;59.76;97812.47;5215392;27;20092;-84
2023/03/05 07:11:15;;;;;;;11.85;4.55;;;;;;;5.33;59.70;97824.25;5235168;27;20418;-84
2023/03/05 07:13:42;;;;;;;14.57;4.90;;;;;;;5.29;59.81;97823.44;5215600;27;20582;-84
2023/03/05 07:16:13;;;;;;;14.73;5.05;;;;;;;5.39;59.37;97819.78;5234721;27;20110;-84
2023/03/05 07:18:40;;;;;;;17.65;5.12;;;;;;;5.06;60.20;97823.19;5234908;27;20400;-84
2023/03/05 07:21:08;;;;;;;12.55;4.45;;;;;;;5.45;59.55;97818.81;5234657;27;20073;-84
2023/03/05 07:23:35;;;;;;;13.40;4.85;;;;;;;5.33;59.30;97824.25;5234927;27;20080;-84
2023/03/05 07:26:04;;;;;;;12.75;4.82;;;;;;;5.11;60.12;97818.81;5215983;27;20058;-84
2023/03/05 07:28:32;;;;;;;14.13;5.20;;;;;;;5.22;60.42;97820.22;5234380;27;20046;-84
2023/03/05 07:31:02;;;;;;;12.30;4.32;;;;;;;5.12;60.27;97828.16;5234989;27;20070;-84
2023/03/05 07:33:29;;;;;;;13.10;4.60;;;;;;;4.68;61.80;97824.06;5234936;27;20491;-84
2023/03/05 07:35:57;;;;;;;11.55;4.30;;;;;;;5.10;60.52;97825.62;5234393;27;20046;-84
2023/03/05 07:38:24;;;;;;;14.00;4.68;;;;;;;4.94;61.41;97821.78;5234803;27;20050;-84
2023/03/05 07:40:51;;;;;;;13.40;4.95;;;;;;;5.03;60.68;97823.28;5234975;27;20066;-84
2023/03/05 07:43:18;;;;;;;;;;;;;;;5.04;60.23;97814.72;5234676;27;20127;-84
2023/03/05 07:45:45;;;;;;;11.30;4.25;;;;;;;5.47;59.44;97817.88;5234770;27;20308;-84
2023/03/05 07:48:14;;;;;;;12.10;4.68;;;;;;;5.26;59.93;97815.03;5234632;27;20047;-84
2023/03/05 07:50:41;;;;;;;11.90;4.15;;;;;;;5.23;59.95;97813.41;5234439;27;20077;-84
2023/03/05 07:53:08;;;;;;;10.93;3.47;;;;;;;5.06;61.18;97800.19;5234902;27;20057;-84
2023/03/05 07:55:44;;;;;;;14.02;4.78;;;;;;;5.23;60.52;97801.44;5215546;27;20110;-84
2023/03/05 07:58:11;;;;;;;13.02;4.07;;;;;;;5.39;60.55;97799.31;5234927;27;20046;-84
2023/03/05 08:00:39;;;;;;;9.65;3.58;;;;;;;5.70;59.41;97808.75;5235194;27;20120;-84
2023/03/05 08:03:06;;;;;;;12.88;4.05;;;;;;;5.28;60.46;97793.63;5215776;27;20054;-84
2023/03/05 08:05:33;;;;;;;11.32;3.90;;;;;;;5.16;60.87;97789.69;5234704;27;20068;-84
2023/03/05 08:08:00;;;;;;;12.50;3.80;;;;;;;5.32;60.83;97794.41;5234723;27;20042;-84
2023/03/05 08:10:27;;;;;;;;;;;;;;;5.38;60.17;97784.84;5234781;27;20066;-84
2023/03/05 08:12:54;;;;;;;8.25;3.00;;;;;;;5.56;60.01;97792.94;5234993;27;19969;-84
2023/03/05 08:15:21;;;;;;;9.88;3.83;;;;;;;5.87;58.05;97793.78;5235068;27;20184;-84
2023/03/05 08:17:48;;;;;;;11.80;4.20;;;;;;;5.73;58.85;97785.63;5234022;27;20054;-84
2023/03/05 08:20:14;;;;;;;10.77;3.35;;;;;;;6.17;56.99;97781.84;5234777;27;20062;-84
2023/03/05 08:22:41;;;;;;;9.02;3.40;;;;;;;6.01;56.74;97778.88;5234774;27;20103;-84
2023/03/05 08:25:08;;;;;;;10.02;3.58;;;;;;;6.13;57.33;97781.97;5234221;27;20058;-84
2023/03/05 08:27:43;;;;;;;10.13;3.62;;;;;;;6.20;57.11;97783.47;5234725;27;20046;-84
2023/03/05 08:30:13;;;;;;;13.75;4.37;;;;;;;6.36;57.15;97779.56;5234703;27;20066;-84
2023/03/05 08:32:40;;;;;;;9.93;3.53;;;;;;;6.28;56.19;97786.66;5215367;27;20077;-84
2023/03/05 08:35:08;;;;;;;10.35;3.70;;;;;;;6.28;56.63;97776.41;5234688;27;20427;-84
2023/03/05 08:37:36;;;;;;;9.88;3.33;;;;;;;6.74;55.66;97788.63;5234603;27;20046;-83
2023/03/05 08:40:03;;;;;;;9.43;3.58;;;;;;;6.67;55.19;97785.41;5234482;27;20062;-84
2023/03/05 08:42:30;;;;;;;11.18;3.90;;;;;;;6.81;54.06;97790.13;5234701;27;20100;-84
2023/03/05 08:44:57;;;;;;;10.77;3.67;;;;;;;7.37;52.81;97784.84;5234165;27;20115;-84
2023/03/05 08:47:25;;;;;;;10.90;3.58;;;;;;;7.20;51.74;97772.59;5234558;27;20385;-84
2023/03/05 08:49:54;;;;;;;12.48;4.28;;;;;;;7.58;51.51;97780.72;5234621;27;20491;-84
2023/03/05 08:52:21;;;;;;;10.02;3.85;;;;;;;7.56;50.75;97785.06;5234269;27;20062;-84
2023/03/05 08:54:49;;;;;;;11.50;4.22;;;;;;;7.47;49.61;97778.53;5234514;27;20476;-84
2023/03/05 08:57:15;;;;;;;10.80;3.42;;;;;;;7.92;49.76;97784.66;5234621;27;20367;-84
2023/03/05 08:59:42;;;;;;;10.15;2.55;;;;;;;8.00;48.76;97795.50;5215291;27;20135;-84
2023/03/05 09:02:10;;;;;;;;;;;;;;;6.84;50.15;97784.91;5235107;27;20122;-84
2023/03/05 09:04:37;;;;;;;10.00;3.25;;;;;;;7.33;49.43;97773.00;5215724;27;20377;-84
2023/03/05 09:07:04;;;;;;;;;;;;;;;6.81;50.43;97784.16;5234431;27;20416;-84
2023/03/05 09:09:31;;;;;;;8.15;3.03;;;;;;;6.97;50.52;97775.06;5234602;27;19965;-84
2023/03/05 09:11:59;;;;;;;10.20;3.08;;;;;;;6.92;50.45;97775.25;5234558;27;20058;-84
2023/03/05 09:14:27;;;;;;;8.48;3.00;;;;;;;6.73;51.17;97776.72;5234049;27;20049;-84
2023/03/05 09:16:55;;;;;;;9.35;3.10;;;;;;;6.77;51.73;97770.59;5234251;27;20088;-84
2023/03/05 09:19:22;;;;;;;8.60;2.90;;;;;;;6.97;51.10;97767.37;5215497;27;20397;-85
2023/03/05 09:21:49;;;;;;;7.47;2.87;;;;;;;7.33;50.70;97780.69;5234107;27;20128;-84
2023/03/05 09:24:16;;;;;;;9.60;3.55;;;;;;;7.80;49.83;97778.22;5234404;27;20050;-85
2023/03/05 09:26:43;;;;;;;8.88;3.33;;;;;;;7.17;51.01;97777.81;5234177;27;20042;-83
2023/03/05 09:29:11;;;;;;;9.30;3.35;;;;;;;7.49;50.08;97768.19;5234166;27;20058;-84
2023/03/05 09:31:38;;;;;;;12.07;3.28;;;;;;;7.37;50.10;97754.06;5215688;27;20082;-84
2023/03/05 09:34:07;;;;;;;10.50;3.53;;;;;;;6.52;52.65;97767.13;5233942;27;20592;-84
2023/03/05 09:36:34;;;;;;;9.70;3.40;;;;;;;6.89;52.47;97769.34;5234410;27;20047;-84
2023/03/05 09:39:01;;;;;;;10.55;3.55;;;;;;;6.41;54.11;97762.34;5234356;27;20066;-84
2023/03/05 09:42:05;;;;;;;10.93;3.53;;;;;;;7.18;52.44;97758.97;5234058;27;20062;-84
2023/03/05 09:45:09;;;;;;;8.23;3.17;;;;;;;7.52;51.10;97761.22;5234285;27;20054;-84
2023/03/05 09:48:07;;;;;;;8.90;3.10;;;;;;;7.41;51.21;97758.19;5234182;27;20715;-84
2023/03/05 09:50:38;;;;;;;10.45;3.78;;;;;;;7.29;52.02;97758.59;5234288;27;20062;-84
2023/03/05 09:53:11;;;;;;;8.48;3.15;;;;;;;7.57;51.71;97762.81;5215496;27;20126;-84
2023/03/05 09:55:41;;;;;;;9.60;3.37;;;;;;;6.84;53.71;97755.84;5233760;27;20395;-84
2023/03/05 09:58:29;;;;;;;10.85;4.00;;;;;;;7.24;52.51;97757.94;5215070;27;20061;-84
2023/03/05 10:01:05;;;;;;;10.98;3.92;;;;;;;7.16;52.90;97755.63;5234152;27;20058;-84
2023/03/05 10:03:56;;;;;;;10.18;3.83;;;;;;;7.22;52.75;97746.88;5214910;27;20122;-84
2023/03/05 10:06:48;;;;;;;11.40;3.70;;;;;;;7.56;51.77;97749.12;5234340;27;20181;-84
2023/03/05 10:09:30;;;;;;;11.30;4.12;;;;;;;7.36;52.37;97756.69;5234703;27;20042;-84
2023/03/05 10:12:43;;;;;;;12.75;4.70;;;;;;;7.62;52.09;97746.31;5198765;27;20082;-84
2023/03/05 10:15:34;;;;;;;12.57;4.25;;;;;;;7.32;52.67;97742.25;5221242;27;20062;-84
2023/03/05 10:18:24;;;;;;;15.30;5.07;;;;;;;7.02;52.95;97754.38;5235063;27;20062;-84
2023/03/05 10:21:23;;;;;;;10.07;3.28;;;;;;;7.21;52.44;97743.47;5216239;27;20057;-84
2023/03/05 10:24:06;;;;;;;11.02;4.25;;;;;;;7.15;53.47;97743.69;5225025;27;20063;-84
2023/03/05 10:26:36;;;;;;;12.63;4.45;;;;;;;7.27;52.88;97734.72;5235291;27;20069;-84
2023/03/05 10:29:19;;;;;;;10.25;3.85;;;;;;;6.92;53.63;97741.91;5234991;27;20053;-84
2023/03/05 10:32:04;;;;;;;10.20;4.07;;;;;;;7.54;52.15;97738.88;5216012;27;20050;-84
2023/03/05 10:34:37;;;;;;;11.52;3.65;;;;;;;7.18;52.40;97743.56;5235140;27;20086;-84
2023/03/05 10:37:35;;;;;;;11.95;4.47;;;;;;;7.28;52.05;97733.84;5234791;27;20074;-84
2023/03/05 10:40:08;;;;;;;11.52;4.32;;;;;;;7.83;51.65;97731.88;5235040;27;20050;-84
2023/03/05 10:42:54;;;;;;;12.57;4.43;;;;;;;8.16;50.83;97726.38;5235179;27;20396;-84
2023/03/05 10:45:25;;;;;;;10.73;4.10;;;;;;;8.37;50.12;97715.28;5234731;27;20066;-84
2023/03/05 10:48:08;;;;;;;11.43;4.28;;;;;;;8.12;50.51;97726.50;5216000;27;20054;-84
2023/03/05 10:50:41;;;;;;;11.12;4.00;;;;;;;8.16;49.64;97716.09;5216152;27;20065;-84
2023/03/05 10:53:24;;;;;;;10.68;3.72;;;;;;;7.88;51.15;97721.44;5216083;27;20103;-84
2023/03/05 10:55:55;;;;;;;10.45;3.55;;;;;;;8.20;50.00;97718.50;5235013;27;20062;-84
2023/03/05 10:58:23;;;;;;;13.50;4.03;;;;;;;8.27;49.42;97719.09;5216285;27;20086;-84
2023/03/05 11:01:05;;;;;;;11.88;4.53;;;;;;;7.98;48.55;97709.94;5235050;27;20087;-84
2023/03/05 11:03:53;;;;;;;10.55;3.87;;;;;;;8.11;49.54;97706.00;5216048;27;20053;-84
2023/03/05 11:06:35;;;;;;;13.77;4.97;;;;;;;8.29;49.20;97694.97;5234613;27;20071;-84
2023/03/05 11:09:27;;;;;;;12.52;4.53;;;;;;;8.49;48.71;97699.37;5234844;27;20116;-84
2023/03/05 11:12:05;;;;;;;13.15;4.57;;;;;;;8.41;49.22;97696.28;5235027;27;20083;-84
2023/03/05 11:14:34;;;;;;;12.60;4.80;;;;;;;8.19;49.67;97691.13;5235011;27;20046;-84
2023/03/05 11:17:03;;;;;;;11.88;4.53;;;;;;;8.22;48.87;97691.00;5234490;27;20482;-84
2023/03/05 11:19:34;;;;;;;11.07;4.00;;;;;;;7.77;49.75;97686.72;5234207;27;20515;-84
2023/03/05 11:22:14;;;;;;;11.82;4.47;;;;;;;7.78;50.56;97683.25;5235256;27;20051;-84
2023/03/05 11:24:45;;;;;;;9.80;3.28;;;;;;;7.91;49.55;97680.22;5235197;27;20101;-84
2023/03/05 11:27:30;;;;;;;12.25;4.60;;;;;;;7.89;49.47;97679.44;5216096;27;20066;-83
2023/03/05 11:29:57;;;;;;;11.12;4.35;;;;;;;8.07;49.16;97674.44;5235043;27;20059;-84
2023/03/05 11:32:28;;;;;;;9.98;3.42;;;;;;;7.53;50.14;97664.50;5235011;27;20054;-84
2023/03/05 11:34:56;;;;;;;10.98;3.90;;;;;;;7.68;48.90;97676.78;5234358;27;20046;-84
2023/03/05 11:37:29;;;;;;;10.70;3.78;;;;;;;7.97;48.35;97674.84;5235156;27;20077;-84
2023/03/05 11:40:14;;;;;;;10.85;3.65;;;;;;;7.92;48.32;97675.03;5234932;27;20115;-84
2023/03/05 11:42:42;;;;;;;10.05;4.00;;;;;;;7.32;49.18;97670.41;5234793;27;20122;-84
2023/03/05 11:45:17;;;;;;;10.90;4.12;;;;;;;7.23;50.12;97666.44;5234732;27;20046;-84
2023/03/05 11:47:49;;;;;;;10.82;4.30;;;;;;;7.10;50.49;97662.63;5215422;27;20130;-84
2023/03/05 11:50:33;;;;;;;12.65;4.03;;;;;;;7.42;50.45;97664.88;5235079;27;20117;-84